sensor_id;sensor_type;location;lat;lon;timestamp;pressure;altitude;pressure_sealevel;temperature;humidity
68628;BME280;55611;48.602;9.490;2023-08-17T00:00:16;97050;;;23.7;53.5
68628;BME280;55611;48.602;9.490;2023-08-17T00:02:46;97060;;;23.6;53.5
68628;BME280;55611;48.602;9.490;2023-08-17T00:05:17;97060;;;23.6;53.5
68628;BME280;55611;48.602;9.490;2023-08-17T00:07:48;97060;;;23.5;53.5
68628;BME280;55611;48.602;9.490;2023-08-17T00:10:19;97060;;;23.5;53.5
68628;BME280;55611;48.602;9.490;2023-08-17T00:12:49;97060;;;23.4;53.5
68628;BME280;55611;48.602;9.490;2023-08-17T00:15:20;97060;;;23.4;53.5
68628;BME280;55611;48.602;9.490;2023-08-17T00:17:51;97060;;;23.3;53.5
68628;BME280;55611;48.602;9.490;2023-08-17T00:20:22;97060;;;23.3;53.5
68628;BME280;55611;48.602;9.490;2023-08-17T00:22:52;97060;;;23.2;53.5
68628;BME280;55611;48.602;9.490;2023-08-17T00:25:23;97060;;;23.1;53.5
68628;BME280;55611;48.602;9.490;2023-08-17T00:27:54;97060;;;23;53.5
68628;BME280;55611;48.602;9.490;2023-08-17T00:30:25;97060;;;22.9;54
68628;BME280;55611;48.602;9.490;2023-08-17T00:32:56;97060;;;22.9;54
68628;BME280;55611;48.602;9.490;2023-08-17T00:35:26;97060;;;22.9;54
68628;BME280;55611;48.602;9.490;2023-08-17T00:40:28;97060;;;22.9;54
68628;BME280;55611;48.602;9.490;2023-08-17T00:42:59;97060;;;22.9;54
68628;BME280;55611;48.602;9.490;2023-08-17T00:45:29;97060;;;22.9;54
68628;BME280;55611;48.602;9.490;2023-08-17T00:48:00;97060;;;22.9;54
68628;BME280;55611;48.602;9.490;2023-08-17T00:50:31;97060;;;22.8;54
68628;BME280;55611;48.602;9.490;2023-08-17T00:53:02;97050;;;22.8;54
68628;BME280;55611;48.602;9.490;2023-08-17T00:55:33;97040;;;22.7;54
68628;BME280;55611;48.602;9.490;2023-08-17T00:58:03;97030;;;22.8;54
68628;BME280;55611;48.602;9.490;2023-08-17T01:00:34;97040;;;22.7;54
68628;BME280;55611;48.602;9.490;2023-08-17T01:03:05;97040;;;22.7;54
68628;BME280;55611;48.602;9.490;2023-08-17T01:05:36;97040;;;22.7;54
68628;BME280;55611;48.602;9.490;2023-08-17T01:08:06;97040;;;22.7;54
68628;BME280;55611;48.602;9.490;2023-08-17T01:10:41;97030;;;22.8;54
68628;BME280;55611;48.602;9.490;2023-08-17T01:13:09;97030;;;22.8;54
68628;BME280;55611;48.602;9.490;2023-08-17T01:15:40;97030;;;22.8;54
68628;BME280;55611;48.602;9.490;2023-08-17T01:18:11;97030;;;22.8;54
68628;BME280;55611;48.602;9.490;2023-08-17T01:20:40;97020;;;22.7;54.5
68628;BME280;55611;48.602;9.490;2023-08-17T01:23:11;97030;;;22.7;54.5
68628;BME280;55611;48.602;9.490;2023-08-17T01:25:42;97020;;;22.7;54.5
68628;BME280;55611;48.602;9.490;2023-08-17T01:28:13;97020;;;22.6;54.5
68628;BME280;55611;48.602;9.490;2023-08-17T01:30:45;97020;;;22.6;54.5
68628;BME280;55611;48.602;9.490;2023-08-17T01:33:17;97020;;;22.6;54.5
68628;BME280;55611;48.602;9.490;2023-08-17T01:35:47;97010;;;22.6;54.5
68628;BME280;55611;48.602;9.490;2023-08-17T01:38:16;97010;;;22.6;54.5
68628;BME280;55611;48.602;9.490;2023-08-17T01:40:47;97000;;;22.7;54.5
68628;BME280;55611;48.602;9.490;2023-08-17T01:43:17;97000;;;22.7;54.5
68628;BME280;55611;48.602;9.490;2023-08-17T01:45:48;97000;;;22.7;54.5
68628;BME280;55611;48.602;9.490;2023-08-17T01:48:19;97000;;;22.7;54.5
68628;BME280;55611;48.602;9.490;2023-08-17T01:53:20;97000;;;22.7;54.5
68628;BME280;55611;48.602;9.490;2023-08-17T01:55:51;97000;;;22.7;54.5
68628;BME280;55611;48.602;9.490;2023-08-17T01:58:22;97000;;;22.7;54.5
68628;BME280;55611;48.602;9.490;2023-08-17T02:00:53;97010;;;22.7;54.5
68628;BME280;55611;48.602;9.490;2023-08-17T02:03:23;97000;;;22.7;54.5
68628;BME280;55611;48.602;9.490;2023-08-17T02:05:56;97010;;;22.7;54.5
68628;BME280;55611;48.602;9.490;2023-08-17T02:08:25;97000;;;22.7;54.5
68628;BME280;55611;48.602;9.490;2023-08-17T02:10:56;97000;;;22.7;54.5
68628;BME280;55611;48.602;9.490;2023-08-17T02:13:26;97010;;;22.7;54.5
68628;BME280;55611;48.602;9.490;2023-08-17T02:15:57;97010;;;22.8;54.5
68628;BME280;55611;48.602;9.490;2023-08-17T02:18:28;97010;;;22.8;54.5
68628;BME280;55611;48.602;9.490;2023-08-17T02:20:59;97010;;;22.7;54.5
68628;BME280;55611;48.602;9.490;2023-08-17T02:23:30;97010;;;22.7;54.5
68628;BME280;55611;48.602;9.490;2023-08-17T02:26:00;97010;;;22.7;54.5
68628;BME280;55611;48.602;9.490;2023-08-17T02:28:31;97000;;;22.7;54.5
68628;BME280;55611;48.602;9.490;2023-08-17T02:31:02;97000;;;22.7;54.5
68628;BME280;55611;48.602;9.490;2023-08-17T02:33:33;96990;;;22.7;54.5
68628;BME280;55611;48.602;9.490;2023-08-17T02:36:04;96980;;;22.6;54.5
68628;BME280;55611;48.602;9.490;2023-08-17T02:38:34;96980;;;22.6;54.5
68628;BME280;55611;48.602;9.490;2023-08-17T02:41:05;96980;;;22.6;54.5
68628;BME280;55611;48.602;9.490;2023-08-17T02:43:36;96980;;;22.6;54.5
68628;BME280;55611;48.602;9.490;2023-08-17T02:46:07;96980;;;22.5;54.5
68628;BME280;55611;48.602;9.490;2023-08-17T02:48:37;96980;;;22.5;54.5
68628;BME280;55611;48.602;9.490;2023-08-17T02:51:08;96980;;;22.5;54.5
68628;BME280;55611;48.602;9.490;2023-08-17T02:53:39;96980;;;22.4;54.5
68628;BME280;55611;48.602;9.490;2023-08-17T02:56:10;96980;;;22.5;54.5
68628;BME280;55611;48.602;9.490;2023-08-17T02:58:40;96980;;;22.4;55
68628;BME280;55611;48.602;9.490;2023-08-17T03:01:11;96970;;;22.4;55
68628;BME280;55611;48.602;9.490;2023-08-17T03:03:42;96970;;;22.4;55
68628;BME280;55611;48.602;9.490;2023-08-17T03:06:13;96970;;;22.4;55
68628;BME280;55611;48.602;9.490;2023-08-17T03:08:44;96960;;;22.3;55
68628;BME280;55611;48.602;9.490;2023-08-17T03:11:14;96960;;;22.3;55
68628;BME280;55611;48.602;9.490;2023-08-17T03:13:45;96950;;;22.3;55
68628;BME280;55611;48.602;9.490;2023-08-17T03:16:16;96950;;;22.2;55
68628;BME280;55611;48.602;9.490;2023-08-17T03:18:47;96950;;;22.2;55
68628;BME280;55611;48.602;9.490;2023-08-17T03:21:17;96950;;;22.2;55
68628;BME280;55611;48.602;9.490;2023-08-17T03:23:48;96950;;;22.2;55
68628;BME280;55611;48.602;9.490;2023-08-17T03:26:19;96950;;;22.2;55
68628;BME280;55611;48.602;9.490;2023-08-17T03:28:50;96950;;;22.2;55
68628;BME280;55611;48.602;9.490;2023-08-17T03:31:21;96960;;;22.1;55
68628;BME280;55611;48.602;9.490;2023-08-17T03:33:51;96960;;;22.1;55
68628;BME280;55611;48.602;9.490;2023-08-17T03:36:22;96960;;;22.1;55
68628;BME280;55611;48.602;9.490;2023-08-17T03:38:53;96950;;;22.1;55
68628;BME280;55611;48.602;9.490;2023-08-17T03:41:24;96950;;;22;55
68628;BME280;55611;48.602;9.490;2023-08-17T03:43:54;96950;;;22;55
68628;BME280;55611;48.602;9.490;2023-08-17T03:46:25;96950;;;22;55
68628;BME280;55611;48.602;9.490;2023-08-17T03:48:58;96950;;;22;55
68628;BME280;55611;48.602;9.490;2023-08-17T03:51:27;96950;;;22;55
68628;BME280;55611;48.602;9.490;2023-08-17T03:53:58;96950;;;22;55
68628;BME280;55611;48.602;9.490;2023-08-17T03:56:28;96950;;;21.9;55
68628;BME280;55611;48.602;9.490;2023-08-17T03:58:59;96960;;;21.9;55
68628;BME280;55611;48.602;9.490;2023-08-17T04:01:30;96960;;;21.9;55
68628;BME280;55611;48.602;9.490;2023-08-17T04:04:01;96960;;;21.9;55
68628;BME280;55611;48.602;9.490;2023-08-17T04:06:31;96960;;;21.8;55
68628;BME280;55611;48.602;9.490;2023-08-17T04:09:02;96960;;;21.8;55
68628;BME280;55611;48.602;9.490;2023-08-17T04:11:35;96960;;;21.8;55
68628;BME280;55611;48.602;9.490;2023-08-17T04:14:04;96970;;;21.7;55
68628;BME280;55611;48.602;9.490;2023-08-17T04:16:34;96970;;;21.7;55
68628;BME280;55611;48.602;9.490;2023-08-17T04:19:05;96980;;;21.7;55
68628;BME280;55611;48.602;9.490;2023-08-17T04:21:36;96980;;;21.8;55
68628;BME280;55611;48.602;9.490;2023-08-17T04:24:07;96980;;;21.8;55
68628;BME280;55611;48.602;9.490;2023-08-17T04:26:38;96990;;;21.8;55
68628;BME280;55611;48.602;9.490;2023-08-17T04:29:08;96990;;;21.7;55
68628;BME280;55611;48.602;9.490;2023-08-17T04:31:39;96990;;;21.6;55
68628;BME280;55611;48.602;9.490;2023-08-17T04:34:10;96990;;;21.6;55
68628;BME280;55611;48.602;9.490;2023-08-17T04:36:41;96990;;;21.7;55
68628;BME280;55611;48.602;9.490;2023-08-17T04:39:11;96990;;;21.7;55
68628;BME280;55611;48.602;9.490;2023-08-17T04:41:42;96990;;;21.7;55
68628;BME280;55611;48.602;9.490;2023-08-17T04:44:13;96990;;;21.8;55
68628;BME280;55611;48.602;9.490;2023-08-17T04:46:44;96990;;;21.9;55
68628;BME280;55611;48.602;9.490;2023-08-17T04:49:15;96990;;;21.9;55
68628;BME280;55611;48.602;9.490;2023-08-17T04:51:45;96990;;;22;55.5
68628;BME280;55611;48.602;9.490;2023-08-17T04:54:16;97000;;;22.1;55.5
68628;BME280;55611;48.602;9.490;2023-08-17T04:56:47;97010;;;22.2;55.5
68628;BME280;55611;48.602;9.490;2023-08-17T04:59:18;97010;;;22.3;55.5
68628;BME280;55611;48.602;9.490;2023-08-17T05:01:48;97010;;;22.4;55.5
68628;BME280;55611;48.602;9.490;2023-08-17T05:04:19;97010;;;22.4;55.5
68628;BME280;55611;48.602;9.490;2023-08-17T05:06:50;97010;;;22.5;55.5
68628;BME280;55611;48.602;9.490;2023-08-17T05:09:21;97010;;;22.5;55
68628;BME280;55611;48.602;9.490;2023-08-17T05:11:52;97010;;;22.5;55
68628;BME280;55611;48.602;9.490;2023-08-17T05:14:22;97000;;;22.6;55.5
68628;BME280;55611;48.602;9.490;2023-08-17T05:16:53;97000;;;22.6;55.5
68628;BME280;55611;48.602;9.490;2023-08-17T05:19:24;97010;;;22.7;55.5
68628;BME280;55611;48.602;9.490;2023-08-17T05:21:55;97010;;;22.7;55.5
68628;BME280;55611;48.602;9.490;2023-08-17T05:24:25;97010;;;22.7;55.5
68628;BME280;55611;48.602;9.490;2023-08-17T05:26:56;97010;;;22.7;55.5
68628;BME280;55611;48.602;9.490;2023-08-17T05:29:27;97010;;;22.7;55.5
68628;BME280;55611;48.602;9.490;2023-08-17T05:31:58;97010;;;22.6;55.5
68628;BME280;55611;48.602;9.490;2023-08-17T05:34:28;97020;;;22.7;55.5
68628;BME280;55611;48.602;9.490;2023-08-17T05:36:59;97010;;;22.7;55.5
68628;BME280;55611;48.602;9.490;2023-08-17T05:39:30;97010;;;22.7;55.5
68628;BME280;55611;48.602;9.490;2023-08-17T05:42:01;97010;;;22.7;55.5
68628;BME280;55611;48.602;9.490;2023-08-17T05:44:32;97010;;;22.7;55.5
68628;BME280;55611;48.602;9.490;2023-08-17T05:47:02;97020;;;22.7;55.5
68628;BME280;55611;48.602;9.490;2023-08-17T05:49:33;97020;;;22.8;55.5
68628;BME280;55611;48.602;9.490;2023-08-17T05:52:04;97020;;;22.8;55.5
68628;BME280;55611;48.602;9.490;2023-08-17T05:54:35;97020;;;22.9;55.5
68628;BME280;55611;48.602;9.490;2023-08-17T05:57:05;97020;;;22.9;55.5
68628;BME280;55611;48.602;9.490;2023-08-17T05:59:36;97010;;;22.9;55.5
68628;BME280;55611;48.602;9.490;2023-08-17T06:02:07;97010;;;23;55.5
68628;BME280;55611;48.602;9.490;2023-08-17T06:04:38;97010;;;23.1;55.5
68628;BME280;55611;48.602;9.490;2023-08-17T06:07:09;97010;;;23.2;55.5
68628;BME280;55611;48.602;9.490;2023-08-17T06:09:39;97010;;;23.3;55.5
68628;BME280;55611;48.602;9.490;2023-08-17T06:12:10;97010;;;23.3;55.5
68628;BME280;55611;48.602;9.490;2023-08-17T06:17:12;97020;;;23.3;55
68628;BME280;55611;48.602;9.490;2023-08-17T06:19:42;97020;;;23.3;55
68628;BME280;55611;48.602;9.490;2023-08-17T06:22:13;97030;;;23.2;55
68628;BME280;55611;48.602;9.490;2023-08-17T06:24:44;97020;;;23.1;55
68628;BME280;55611;48.602;9.490;2023-08-17T06:27:15;97030;;;23;55
68628;BME280;55611;48.602;9.490;2023-08-17T06:29:46;97020;;;23;55
68628;BME280;55611;48.602;9.490;2023-08-17T06:32:16;97010;;;23;55
68628;BME280;55611;48.602;9.490;2023-08-17T06:34:47;97020;;;23.1;55
68628;BME280;55611;48.602;9.490;2023-08-17T06:37:18;97020;;;23.1;55.5
68628;BME280;55611;48.602;9.490;2023-08-17T06:39:49;97020;;;23.1;55.5
68628;BME280;55611;48.602;9.490;2023-08-17T06:44:50;97020;;;23.1;55.5
68628;BME280;55611;48.602;9.490;2023-08-17T06:47:21;97020;;;23.1;55.5
68628;BME280;55611;48.602;9.490;2023-08-17T06:49:52;97020;;;23.3;55.5
68628;BME280;55611;48.602;9.490;2023-08-17T06:52:23;97030;;;23.4;55.5
68628;BME280;55611;48.602;9.490;2023-08-17T06:54:53;97030;;;23.3;55.5
68628;BME280;55611;48.602;9.490;2023-08-17T06:57:24;97030;;;23.5;55.5
68628;BME280;55611;48.602;9.490;2023-08-17T06:59:55;97030;;;23.6;55.5
68628;BME280;55611;48.602;9.490;2023-08-17T07:02:26;97030;;;23.7;55.5
68628;BME280;55611;48.602;9.490;2023-08-17T07:04:56;97030;;;23.7;55.5
68628;BME280;55611;48.602;9.490;2023-08-17T07:07:27;97020;;;23.6;55.5
68628;BME280;55611;48.602;9.490;2023-08-17T07:09:58;97030;;;23.6;55.5
68628;BME280;55611;48.602;9.490;2023-08-17T07:12:29;97030;;;23.6;55.5
68628;BME280;55611;48.602;9.490;2023-08-17T07:15:00;97030;;;23.7;55.5
68628;BME280;55611;48.602;9.490;2023-08-17T07:17:30;97030;;;23.7;55
68628;BME280;55611;48.602;9.490;2023-08-17T07:20:01;97040;;;23.7;55
68628;BME280;55611;48.602;9.490;2023-08-17T07:22:32;97030;;;23.7;55
68628;BME280;55611;48.602;9.490;2023-08-17T07:25:03;97030;;;23.8;55.5
68628;BME280;55611;48.602;9.490;2023-08-17T07:27:33;97030;;;23.9;55.5
68628;BME280;55611;48.602;9.490;2023-08-17T07:30:04;97030;;;23.9;55.5
68628;BME280;55611;48.602;9.490;2023-08-17T07:32:35;97030;;;24.1;55.5
68628;BME280;55611;48.602;9.490;2023-08-17T07:35:06;97030;;;24.1;55.5
68628;BME280;55611;48.602;9.490;2023-08-17T07:37:36;97030;;;24.2;55.5
68628;BME280;55611;48.602;9.490;2023-08-17T07:40:07;97030;;;24.3;55.5
68628;BME280;55611;48.602;9.490;2023-08-17T07:42:38;97030;;;24.5;55.5
68628;BME280;55611;48.602;9.490;2023-08-17T07:45:09;97030;;;24.6;55
68628;BME280;55611;48.602;9.490;2023-08-17T07:47:40;97020;;;24.6;55
68628;BME280;55611;48.602;9.490;2023-08-17T07:50:10;97020;;;24.7;55
68628;BME280;55611;48.602;9.490;2023-08-17T07:52:41;97020;;;24.8;55
68628;BME280;55611;48.602;9.490;2023-08-17T07:55:12;97020;;;24.7;55
68628;BME280;55611;48.602;9.490;2023-08-17T07:57:43;97020;;;24.7;55
68628;BME280;55611;48.602;9.490;2023-08-17T08:00:14;97010;;;24.8;55
68628;BME280;55611;48.602;9.490;2023-08-17T08:02:45;97010;;;24.8;55
68628;BME280;55611;48.602;9.490;2023-08-17T08:05:15;97010;;;24.8;55
68628;BME280;55611;48.602;9.490;2023-08-17T08:07:46;97010;;;24.9;55
68628;BME280;55611;48.602;9.490;2023-08-17T08:10:17;97010;;;25;55
68628;BME280;55611;48.602;9.490;2023-08-17T08:12:47;97010;;;25;55
68628;BME280;55611;48.602;9.490;2023-08-17T08:15:18;97010;;;25.1;55
68628;BME280;55611;48.602;9.490;2023-08-17T08:17:49;97010;;;25.1;55
68628;BME280;55611;48.602;9.490;2023-08-17T08:20:20;97000;;;25.2;55
68628;BME280;55611;48.602;9.490;2023-08-17T08:22:50;97010;;;25.4;55
68628;BME280;55611;48.602;9.490;2023-08-17T08:25:21;97010;;;25.4;55
68628;BME280;55611;48.602;9.490;2023-08-17T08:27:52;97010;;;25.5;55
68628;BME280;55611;48.602;9.490;2023-08-17T08:30:23;97010;;;25.5;55
68628;BME280;55611;48.602;9.490;2023-08-17T08:32:53;97010;;;25.3;55
68628;BME280;55611;48.602;9.490;2023-08-17T08:35:24;97010;;;25.2;55
68628;BME280;55611;48.602;9.490;2023-08-17T08:40:26;97010;;;25.5;55
68628;BME280;55611;48.602;9.490;2023-08-17T08:42:57;97010;;;25.6;55
68628;BME280;55611;48.602;9.490;2023-08-17T08:45:28;97010;;;25.7;55
68628;BME280;55611;48.602;9.490;2023-08-17T08:47:58;97010;;;25.8;55
68628;BME280;55611;48.602;9.490;2023-08-17T08:50:31;97010;;;25.9;55
68628;BME280;55611;48.602;9.490;2023-08-17T08:53:00;97010;;;25.8;55
68628;BME280;55611;48.602;9.490;2023-08-17T08:55:34;97020;;;25.9;55
68628;BME280;55611;48.602;9.490;2023-08-17T08:58:01;97020;;;26;55
68628;BME280;55611;48.602;9.490;2023-08-17T09:00:32;97020;;;26;55
68628;BME280;55611;48.602;9.490;2023-08-17T09:03:03;97020;;;26.2;55
68628;BME280;55611;48.602;9.490;2023-08-17T09:05:34;97020;;;26.2;55
68628;BME280;55611;48.602;9.490;2023-08-17T09:08:04;97020;;;26.1;55
68628;BME280;55611;48.602;9.490;2023-08-17T09:10:35;97020;;;26.1;55
68628;BME280;55611;48.602;9.490;2023-08-17T09:13:06;97020;;;26.2;55
68628;BME280;55611;48.602;9.490;2023-08-17T09:15:37;97020;;;26.2;55
68628;BME280;55611;48.602;9.490;2023-08-17T09:18:07;97020;;;26.3;55
68628;BME280;55611;48.602;9.490;2023-08-17T09:20:39;97020;;;26.3;55
68628;BME280;55611;48.602;9.490;2023-08-17T09:23:10;97020;;;26.3;55
68628;BME280;55611;48.602;9.490;2023-08-17T09:25:40;97010;;;26.3;55
68628;BME280;55611;48.602;9.490;2023-08-17T09:28:11;97010;;;26.3;55
68628;BME280;55611;48.602;9.490;2023-08-17T09:33:12;97010;;;26.6;55
68628;BME280;55611;48.602;9.490;2023-08-17T09:35:43;97020;;;26.5;55
68628;BME280;55611;48.602;9.490;2023-08-17T09:38:14;97010;;;26.6;55
68628;BME280;55611;48.602;9.490;2023-08-17T09:40:45;97010;;;26.6;55
68628;BME280;55611;48.602;9.490;2023-08-17T09:43:15;97010;;;26.7;55
68628;BME280;55611;48.602;9.490;2023-08-17T09:45:47;97010;;;26.8;54.5
68628;BME280;55611;48.602;9.490;2023-08-17T09:48:17;97010;;;26.8;54.5
68628;BME280;55611;48.602;9.490;2023-08-17T09:50:48;97010;;;26.8;54.5
68628;BME280;55611;48.602;9.490;2023-08-17T09:53:19;97010;;;26.9;55
68628;BME280;55611;48.602;9.490;2023-08-17T09:55:49;97010;;;26.8;55
68628;BME280;55611;48.602;9.490;2023-08-17T09:58:20;97000;;;27;54.5
68628;BME280;55611;48.602;9.490;2023-08-17T10:00:51;97000;;;27.1;54.5
68628;BME280;55611;48.602;9.490;2023-08-17T10:03:21;97000;;;27.2;54.5
68628;BME280;55611;48.602;9.490;2023-08-17T10:05:56;96990;;;27.3;54.5
68628;BME280;55611;48.602;9.490;2023-08-17T10:08:23;96990;;;27.4;54.5
68628;BME280;55611;48.602;9.490;2023-08-17T10:10:54;96980;;;27.6;54.5
68628;BME280;55611;48.602;9.490;2023-08-17T10:13:42;96980;;;27.6;54.5
68628;BME280;55611;48.602;9.490;2023-08-17T10:15:59;96980;;;27.7;54.5
68628;BME280;55611;48.602;9.490;2023-08-17T10:18:45;96980;;;27.8;54.5
68628;BME280;55611;48.602;9.490;2023-08-17T10:21:00;96980;;;28;54.5
68628;BME280;55611;48.602;9.490;2023-08-17T10:26:00;96990;;;28.1;54.5
68628;BME280;55611;48.602;9.490;2023-08-17T10:28:30;96980;;;28.1;54.5
68628;BME280;55611;48.602;9.490;2023-08-17T10:31:00;96980;;;28.2;54.5
68628;BME280;55611;48.602;9.490;2023-08-17T10:33:31;96980;;;28.3;54.5
68628;BME280;55611;48.602;9.490;2023-08-17T10:36:01;96980;;;28.4;54
68628;BME280;55611;48.602;9.490;2023-08-17T10:38:32;96980;;;28.4;54
68628;BME280;55611;48.602;9.490;2023-08-17T10:41:11;96980;;;28.4;54
68628;BME280;55611;48.602;9.490;2023-08-17T10:43:34;96980;;;28.4;54
68628;BME280;55611;48.602;9.490;2023-08-17T10:46:20;96980;;;28.4;54
68628;BME280;55611;48.602;9.490;2023-08-17T10:48:38;96980;;;28.4;54
68628;BME280;55611;48.602;9.490;2023-08-17T10:51:06;96980;;;28.5;54
68628;BME280;55611;48.602;9.490;2023-08-17T10:53:37;96980;;;28.6;54
68628;BME280;55611;48.602;9.490;2023-08-17T10:56:09;96980;;;28.7;54
68628;BME280;55611;48.602;9.490;2023-08-17T10:58:39;96980;;;28.8;54
68628;BME280;55611;48.602;9.490;2023-08-17T11:01:09;96980;;;28.8;54
68628;BME280;55611;48.602;9.490;2023-08-17T11:03:41;96980;;;28.9;54
68628;BME280;55611;48.602;9.490;2023-08-17T11:06:15;96980;;;28.9;54.5
68628;BME280;55611;48.602;9.490;2023-08-17T11:08:56;96970;;;29.1;54
68628;BME280;55611;48.602;9.490;2023-08-17T11:11:13;96970;;;29.2;54
68628;BME280;55611;48.602;9.490;2023-08-17T11:13:44;96960;;;29.2;54
68628;BME280;55611;48.602;9.490;2023-08-17T11:16:14;96950;;;29.1;54
68628;BME280;55611;48.602;9.490;2023-08-17T11:18:45;96950;;;29.3;54
68628;BME280;55611;48.602;9.490;2023-08-17T11:21:15;96940;;;29.3;54
68628;BME280;55611;48.602;9.490;2023-08-17T11:23:46;96940;;;29.3;54
68628;BME280;55611;48.602;9.490;2023-08-17T11:26:17;96940;;;29.3;54
68628;BME280;55611;48.602;9.490;2023-08-17T11:28:48;96940;;;29.4;54
68628;BME280;55611;48.602;9.490;2023-08-17T11:31:18;96940;;;29.4;54
68628;BME280;55611;48.602;9.490;2023-08-17T11:33:49;96940;;;29.3;54
68628;BME280;55611;48.602;9.490;2023-08-17T11:36:20;96930;;;29.4;54
68628;BME280;55611;48.602;9.490;2023-08-17T11:38:51;96930;;;29.4;54
68628;BME280;55611;48.602;9.490;2023-08-17T11:41:22;96930;;;29.6;54
68628;BME280;55611;48.602;9.490;2023-08-17T11:43:52;96930;;;29.9;54
68628;BME280;55611;48.602;9.490;2023-08-17T11:46:23;96930;;;29.9;54
68628;BME280;55611;48.602;9.490;2023-08-17T11:48:54;96920;;;29.9;54
68628;BME280;55611;48.602;9.490;2023-08-17T11:51:28;96920;;;30;53.5
68628;BME280;55611;48.602;9.490;2023-08-17T11:53:58;96930;;;30.2;53.5
68628;BME280;55611;48.602;9.490;2023-08-17T11:56:26;96930;;;30.3;53.5
68628;BME280;55611;48.602;9.490;2023-08-17T11:58:57;96930;;;30.3;53.5
68628;BME280;55611;48.602;9.490;2023-08-17T12:01:32;96930;;;30.5;53.5
68628;BME280;55611;48.602;9.490;2023-08-17T12:03:58;96940;;;30.6;53.5
68628;BME280;55611;48.602;9.490;2023-08-17T12:06:30;96940;;;30.7;53.5
68628;BME280;55611;48.602;9.490;2023-08-17T12:09:00;96950;;;30.7;53.5
68628;BME280;55611;48.602;9.490;2023-08-17T12:11:31;96950;;;30.7;53.5
68628;BME280;55611;48.602;9.490;2023-08-17T12:14:07;96950;;;30.6;53.5
68628;BME280;55611;48.602;9.490;2023-08-17T12:16:32;96940;;;30.5;53
68628;BME280;55611;48.602;9.490;2023-08-17T12:19:04;96940;;;30.4;53.5
68628;BME280;55611;48.602;9.490;2023-08-17T12:21:34;96940;;;30.2;53.5
68628;BME280;55611;48.602;9.490;2023-08-17T12:24:05;96940;;;30.1;53.5
68628;BME280;55611;48.602;9.490;2023-08-17T12:26:35;96950;;;30;53.5
68628;BME280;55611;48.602;9.490;2023-08-17T12:29:06;96950;;;29.9;53.5
68628;BME280;55611;48.602;9.490;2023-08-17T12:31:37;96950;;;29.8;53.5
68628;BME280;55611;48.602;9.490;2023-08-17T12:34:08;96950;;;29.6;53.5
68628;BME280;55611;48.602;9.490;2023-08-17T12:36:39;96940;;;29.5;53.5
68628;BME280;55611;48.602;9.490;2023-08-17T12:39:09;96930;;;29.4;53.5
68628;BME280;55611;48.602;9.490;2023-08-17T12:41:40;96930;;;29.2;53.5
68628;BME280;55611;48.602;9.490;2023-08-17T12:44:11;96950;;;29.1;53.5
68628;BME280;55611;48.602;9.490;2023-08-17T12:46:42;96970;;;29;53.5
68628;BME280;55611;48.602;9.490;2023-08-17T12:49:12;96980;;;28.9;53.5
68628;BME280;55611;48.602;9.490;2023-08-17T12:51:43;96970;;;28.8;53.5
68628;BME280;55611;48.602;9.490;2023-08-17T12:54:14;96970;;;28.7;54
68628;BME280;55611;48.602;9.490;2023-08-17T12:56:45;96970;;;28.7;53.5
68628;BME280;55611;48.602;9.490;2023-08-17T12:59:16;96970;;;28.6;54
68628;BME280;55611;48.602;9.490;2023-08-17T13:01:46;96990;;;28.5;54
68628;BME280;55611;48.602;9.490;2023-08-17T13:04:17;97010;;;28.4;54
68628;BME280;55611;48.602;9.490;2023-08-17T13:06:48;97030;;;28.4;54
68628;BME280;55611;48.602;9.490;2023-08-17T13:09:19;97040;;;28.4;54
68628;BME280;55611;48.602;9.490;2023-08-17T13:11:49;97040;;;28.4;54
68628;BME280;55611;48.602;9.490;2023-08-17T13:14:20;97030;;;28.4;54
68628;BME280;55611;48.602;9.490;2023-08-17T13:16:51;97020;;;28.4;54
68628;BME280;55611;48.602;9.490;2023-08-17T13:19:22;97020;;;28.3;54
68628;BME280;55611;48.602;9.490;2023-08-17T13:24:23;97030;;;28.3;54
68628;BME280;55611;48.602;9.490;2023-08-17T13:26:53;97030;;;28.3;54
68628;BME280;55611;48.602;9.490;2023-08-17T13:29:24;97010;;;28.3;54
68628;BME280;55611;48.602;9.490;2023-08-17T13:31:55;97010;;;28.3;54
68628;BME280;55611;48.602;9.490;2023-08-17T13:34:26;97000;;;28.2;54
68628;BME280;55611;48.602;9.490;2023-08-17T13:36:57;96990;;;28.1;54
68628;BME280;55611;48.602;9.490;2023-08-17T13:39:27;96990;;;28;54
68628;BME280;55611;48.602;9.490;2023-08-17T13:41:58;96980;;;28;54
68628;BME280;55611;48.602;9.490;2023-08-17T13:44:29;96960;;;28;54
68628;BME280;55611;48.602;9.490;2023-08-17T13:47:00;96960;;;27.9;54
68628;BME280;55611;48.602;9.490;2023-08-17T13:49:30;96960;;;27.9;54.5
68628;BME280;55611;48.602;9.490;2023-08-17T13:52:01;96950;;;27.9;54.5
68628;BME280;55611;48.602;9.490;2023-08-17T13:54:32;96950;;;27.9;54.5
68628;BME280;55611;48.602;9.490;2023-08-17T13:57:03;96950;;;28;54
68628;BME280;55611;48.602;9.490;2023-08-17T13:59:34;96960;;;28;54
68628;BME280;55611;48.602;9.490;2023-08-17T14:02:04;96960;;;28.1;54
68628;BME280;55611;48.602;9.490;2023-08-17T14:04:35;96960;;;28.1;54.5
68628;BME280;55611;48.602;9.490;2023-08-17T14:07:06;96950;;;28.1;54
68628;BME280;55611;48.602;9.490;2023-08-17T14:09:37;96960;;;28.1;54
68628;BME280;55611;48.602;9.490;2023-08-17T14:12:08;96960;;;28.1;54
68628;BME280;55611;48.602;9.490;2023-08-17T14:14:38;96960;;;28.1;54
68628;BME280;55611;48.602;9.490;2023-08-17T14:17:09;96960;;;28.1;54
68628;BME280;55611;48.602;9.490;2023-08-17T14:19:40;96960;;;28.1;54
68628;BME280;55611;48.602;9.490;2023-08-17T14:22:11;96960;;;28.1;54
68628;BME280;55611;48.602;9.490;2023-08-17T14:24:41;96950;;;28.1;54
68628;BME280;55611;48.602;9.490;2023-08-17T14:27:12;96940;;;28.1;54
68628;BME280;55611;48.602;9.490;2023-08-17T14:29:43;96930;;;28;54
68628;BME280;55611;48.602;9.490;2023-08-17T14:32:14;96920;;;28;54
68628;BME280;55611;48.602;9.490;2023-08-17T14:34:44;96920;;;27.9;54
68628;BME280;55611;48.602;9.490;2023-08-17T14:37:15;96910;;;27.8;54
68628;BME280;55611;48.602;9.490;2023-08-17T14:39:46;96920;;;27.8;54.5
68628;BME280;55611;48.602;9.490;2023-08-17T14:42:17;96910;;;27.7;54.5
68628;BME280;55611;48.602;9.490;2023-08-17T14:44:47;96920;;;27.6;54.5
68628;BME280;55611;48.602;9.490;2023-08-17T14:47:18;96920;;;27.6;54.5
68628;BME280;55611;48.602;9.490;2023-08-17T14:49:49;96910;;;27.5;54.5